FMCZ Airport Information

Runway Information
Runway 16 Length 6330 ft width 92 ft
Elevation 10 ft Threshold 250 ft Heading 150
Runway 34 Length 6330 ft Width 92 ft
Elevation 23 ft Threshold 0 ft Heading 330
Airport Frequencies
Type AFIS Name AFIS Frequency 119.2 MHZ
Airport Navaids
Type VOR-DME Name Dzaoudzi Pamandzi Frequency 113500 KHZ
Type NDB Name Dzaoudzi Pamandzi Frequency 341 KHZ
Airport Weather Information & NOTAM
ADDS - METARS form results

(2019 UTC 18 January 2020)
Data provider http://aviationweather.gov/metar/data/
 
METAR text: FMCZ 182000Z AUTO 34010KT 310V010 9999 FEW023 BKN170 29/25 Q1009
Conditions at: FMCZ (DZAOUDZI/PAMANZI, KM) observed 2000 UTC 18 January 2020
Temperature: 29.0°C (84°F)
Dewpoint: 25.0°C (77°F) [RH = 79%]
Pressure (altimeter): 29.79 inches Hg (1009.0 mb)
Winds: from the NNW (340 degrees) at 12 MPH (10 knots; 5.1 m/s)
Visibility: 6 or more miles (10+ km)
Ceiling: 17000 feet AGL
Clouds: few clouds at 2300 feet AGL
broken clouds at 17000 feet AGL
Weather: no significant weather observed at this time

METAR text: FMCZ 181930Z AUTO 34011KT 310V010 9999 SCT021 SCT031 BKN040 29/26 Q1009
Conditions at: FMCZ (DZAOUDZI/PAMANZI, KM) observed 1930 UTC 18 January 2020
Temperature: 29.0°C (84°F)
Dewpoint: 26.0°C (79°F) [RH = 84%]
Pressure (altimeter): 29.79 inches Hg (1009.0 mb)
Winds: from the NNW (340 degrees) at 13 MPH (11 knots; 5.7 m/s)
Visibility: 6 or more miles (10+ km)
Ceiling: 4000 feet AGL
Clouds: scattered clouds at 2100 feet AGL
scattered clouds at 3100 feet AGL
broken clouds at 4000 feet AGL
Weather: no significant weather observed at this time

Forecast for: FMCZ (DZAOUDZI/PAMANZI, KM)
Text: TAF FMCZ 181100Z 1812/1912 29007KT 4000 +RA BR FEW020TCU
Forecast period: 1200 UTC 18 January 2020 to 1200 UTC 19 January 2020
Forecast type: FROM: standard forecast or significant change
Winds: from the WNW (290 degrees) at 8 MPH (7 knots; 3.6 m/s)
Visibility: 2.49 miles (4.01 km)
Ceiling: at least 12,000 feet AGL
Clouds: few clouds at 2000 feet AGL
Weather: +RA BR  (heavy rain, mist)
Text: TEMPO 1812/1817 SHRA SCT020TCU
Forecast period: 1200 to 1700 UTC 18 January 2020
Forecast type: TEMPORARY: The following changes expected for less than half the time period
Visibility: missing
Ceiling: at least 12,000 feet AGL
Clouds: scattered clouds at 2000 feet AGL
Weather: SHRA  (rain showers)
Text: PROB30
Forecast period: 1200 to 1500 UTC 18 January 2020
Forecast type: TEMPORARY: The following changes expected for less than half the time period
Winds: variable direction winds at 17 MPH (15 knots; 7.7 m/s)
gusting to 29 MPH (25 knots; 12.9 m/s)
Visibility: 0.93 miles (1.50 km)
Ceiling: 1500 feet AGL
Clouds: broken clouds at 1500 feet AGL
Weather: TSRA  (rain associated with thunderstorm(s))